createdAt,value
2024-02-02T00:00:45.387Z,3.48
2024-02-02T00:03:12.328Z,3.42
2024-02-02T00:05:39.129Z,3.42
2024-02-02T00:08:08.167Z,3.49
2024-02-02T00:10:35.186Z,3.27
2024-02-02T00:13:01.890Z,3.22
2024-02-02T00:15:28.746Z,3.21
2024-02-02T00:17:55.539Z,3.18
2024-02-02T00:20:22.132Z,3.07
2024-02-02T00:22:49.030Z,2.92
2024-02-02T00:25:15.765Z,2.93
2024-02-02T00:27:42.965Z,2.97
2024-02-02T00:30:09.992Z,2.96
2024-02-02T00:32:36.515Z,2.99
2024-02-02T00:35:03.292Z,3.07
2024-02-02T00:37:29.919Z,3.12
2024-02-02T00:39:56.354Z,3.09
2024-02-02T00:42:22.891Z,3.08
2024-02-02T00:44:49.542Z,3.05
2024-02-02T00:47:16.418Z,3.08
2024-02-02T00:49:43.324Z,3.19
2024-02-02T00:52:09.889Z,2.99
2024-02-02T00:54:36.767Z,2.97
2024-02-02T00:57:03.925Z,2.90
2024-02-02T00:59:30.493Z,3.01
2024-02-02T01:01:57.006Z,2.93
2024-02-02T01:04:23.853Z,2.82
2024-02-02T01:06:50.795Z,2.77
2024-02-02T01:09:17.629Z,2.74
2024-02-02T01:11:44.657Z,2.71
2024-02-02T01:14:11.152Z,2.80
2024-02-02T01:16:37.629Z,2.77
2024-02-02T01:19:04.389Z,2.79
2024-02-02T01:21:31.823Z,2.79
2024-02-02T01:23:58.507Z,2.79
2024-02-02T01:26:25.205Z,2.72
2024-02-02T01:28:52.053Z,2.71
2024-02-02T01:31:18.657Z,2.66
2024-02-02T01:33:45.205Z,2.49
2024-02-02T01:36:12.325Z,2.48
2024-02-02T01:38:39.435Z,2.49
2024-02-02T01:41:06.099Z,2.44
2024-02-02T01:43:33.383Z,2.47
2024-02-02T01:45:59.997Z,2.50
2024-02-02T01:48:27.330Z,2.42
2024-02-02T01:50:54.931Z,2.44
2024-02-02T01:53:21.823Z,2.41
2024-02-02T01:55:48.408Z,2.36
2024-02-02T01:58:15.201Z,2.28
2024-02-02T02:00:41.791Z,2.23
2024-02-02T02:03:08.812Z,2.19
2024-02-02T02:05:37.074Z,2.17
2024-02-02T02:08:04.449Z,2.16
2024-02-02T02:10:30.944Z,2.20
2024-02-02T02:12:57.808Z,2.18
2024-02-02T02:15:25.703Z,2.24
2024-02-02T02:17:55.404Z,2.21
2024-02-02T02:20:24.128Z,2.24
2024-02-02T02:22:50.877Z,2.29
2024-02-02T02:25:17.418Z,2.32
2024-02-02T02:27:45.136Z,2.21
2024-02-02T02:30:12.771Z,2.27
2024-02-02T02:32:39.467Z,2.21
2024-02-02T02:35:06.428Z,2.13
2024-02-02T02:37:33.013Z,2.10
2024-02-02T02:39:59.868Z,2.11
2024-02-02T02:42:26.756Z,2.12
2024-02-02T02:44:53.654Z,2.16
2024-02-02T02:47:20.529Z,2.16
2024-02-02T02:49:47.232Z,2.14
2024-02-02T02:52:14.123Z,2.18
2024-02-02T02:54:40.583Z,2.23
2024-02-02T02:57:07.432Z,2.24
2024-02-02T02:59:36.504Z,2.19
2024-02-02T03:02:04.106Z,2.22
2024-02-02T03:04:30.909Z,2.22
2024-02-02T03:06:57.791Z,2.17
2024-02-02T03:09:24.822Z,2.12
2024-02-02T03:11:51.548Z,2.17
2024-02-02T03:14:18.492Z,2.16
2024-02-02T03:16:45.137Z,2.23
2024-02-02T03:19:11.751Z,2.22
2024-02-02T03:21:38.846Z,2.33
2024-02-02T03:24:06.589Z,2.35
2024-02-02T03:26:33.441Z,2.37
2024-02-02T03:29:00.018Z,2.38
2024-02-02T03:31:26.499Z,2.47
2024-02-02T03:33:53.145Z,2.49
2024-02-02T03:36:19.787Z,2.53
2024-02-02T03:38:46.495Z,2.46
2024-02-02T03:41:14.016Z,2.36
2024-02-02T03:43:40.668Z,2.46
2024-02-02T03:46:07.773Z,2.40
2024-02-02T03:48:34.452Z,2.34
2024-02-02T03:51:02.350Z,2.33
2024-02-02T03:53:29.120Z,2.39
2024-02-02T03:55:55.695Z,2.39
2024-02-02T03:58:22.664Z,2.38
2024-02-02T04:00:49.467Z,2.38
2024-02-02T04:03:16.756Z,2.41
2024-02-02T04:05:43.671Z,2.46
2024-02-02T04:08:11.348Z,2.46
2024-02-02T04:10:39.769Z,2.54
2024-02-02T04:13:06.359Z,2.52
2024-02-02T04:15:33.683Z,2.63
2024-02-02T04:18:01.086Z,2.60
2024-02-02T04:20:27.962Z,2.68
2024-02-02T04:22:54.595Z,2.64
2024-02-02T04:25:21.100Z,2.63
2024-02-02T04:27:47.721Z,2.55
2024-02-02T04:30:14.698Z,2.65
2024-02-02T04:32:41.947Z,2.69
2024-02-02T04:35:08.552Z,2.63
2024-02-02T04:37:35.200Z,2.68
2024-02-02T04:40:02.158Z,2.65
2024-02-02T04:42:29.302Z,2.65
2024-02-02T04:44:56.057Z,2.67
2024-02-02T04:47:23.897Z,2.65
2024-02-02T04:49:50.672Z,2.55
2024-02-02T04:52:17.322Z,2.57
2024-02-02T04:54:44.184Z,2.59
2024-02-02T04:57:11.197Z,2.60
2024-02-02T04:59:38.918Z,2.67
2024-02-02T05:02:06.657Z,2.68
2024-02-02T05:04:34.133Z,2.56
2024-02-02T05:07:01.045Z,2.66
2024-02-02T05:09:28.401Z,2.59
2024-02-02T05:11:55.500Z,2.63
2024-02-02T05:14:22.183Z,2.67
2024-02-02T05:16:48.786Z,2.75
2024-02-02T05:19:15.860Z,2.72
2024-02-02T05:21:42.707Z,2.72
2024-02-02T05:24:22.042Z,2.66
2024-02-02T05:26:56.585Z,2.74
2024-02-02T05:29:23.304Z,2.77
2024-02-02T05:31:49.920Z,2.82
2024-02-02T05:34:16.818Z,2.87
2024-02-02T05:36:43.984Z,2.87
2024-02-02T05:39:11.005Z,2.79
2024-02-02T05:41:37.886Z,2.81
2024-02-02T05:44:04.790Z,2.83
2024-02-02T05:46:31.389Z,2.87
2024-02-02T05:48:58.175Z,2.67
2024-02-02T05:51:24.947Z,2.97
2024-02-02T05:53:52.692Z,2.99
2024-02-02T05:56:19.848Z,3.02
2024-02-02T05:58:46.730Z,3.03
2024-02-02T06:01:13.539Z,3.05
2024-02-02T06:03:40.458Z,3.10
2024-02-02T06:06:07.721Z,3.11
2024-02-02T06:08:34.469Z,3.05
2024-02-02T06:11:01.060Z,2.98
2024-02-02T06:13:27.874Z,3.04
2024-02-02T06:15:56.036Z,3.12
2024-02-02T06:18:23.133Z,3.19
2024-02-02T06:20:49.908Z,3.20
2024-02-02T06:23:16.790Z,3.21
2024-02-02T06:25:43.901Z,3.21
2024-02-02T06:28:11.269Z,3.28
2024-02-02T06:30:38.342Z,3.25
2024-02-02T06:33:05.119Z,3.29
2024-02-02T06:35:32.022Z,3.28
2024-02-02T06:38:01.502Z,3.20
2024-02-02T06:40:28.602Z,3.24
2024-02-02T06:42:56.389Z,3.22
2024-02-02T06:45:23.855Z,3.25
2024-02-02T06:47:53.594Z,3.27
2024-02-02T06:50:20.333Z,3.29
2024-02-02T06:52:47.323Z,3.29
2024-02-02T06:55:15.506Z,3.52
2024-02-02T06:57:43.338Z,3.47
2024-02-02T07:00:13.218Z,3.45
2024-02-02T07:02:40.272Z,3.44
2024-02-02T07:05:07.887Z,3.52
2024-02-02T07:07:34.969Z,3.51
2024-02-02T07:10:02.502Z,3.60
2024-02-02T07:12:35.903Z,3.65
2024-02-02T07:15:05.617Z,3.61
2024-02-02T07:17:37.897Z,3.64
2024-02-02T07:20:10.331Z,3.64
2024-02-02T07:22:39.175Z,3.57
2024-02-02T07:25:07.869Z,3.61
2024-02-02T07:28:05.636Z,3.73
2024-02-02T07:30:32.608Z,3.68
2024-02-02T07:33:01.364Z,3.61
2024-02-02T07:35:33.138Z,3.67
2024-02-02T07:38:07.544Z,3.71
2024-02-02T07:41:06.508Z,3.78
2024-02-02T07:43:34.653Z,3.82
2024-02-02T07:46:02.816Z,3.77
2024-02-02T07:48:31.078Z,3.82
2024-02-02T07:50:57.990Z,3.93
2024-02-02T07:53:24.721Z,4.03
2024-02-02T07:55:51.979Z,3.95
2024-02-02T07:58:19.411Z,4.03
2024-02-02T08:00:46.232Z,4.06
2024-02-02T08:03:13.867Z,4.08
2024-02-02T08:05:43.227Z,4.09
2024-02-02T08:08:11.096Z,4.20
2024-02-02T08:10:43.212Z,4.21
2024-02-02T08:13:15.382Z,4.34
2024-02-02T08:15:42.446Z,4.43
2024-02-02T08:18:10.337Z,4.58
2024-02-02T08:20:37.921Z,4.69
2024-02-02T08:23:06.175Z,4.83
2024-02-02T08:25:32.920Z,4.73
2024-02-02T08:28:02.221Z,4.76
2024-02-02T08:30:29.546Z,4.65
2024-02-02T08:32:56.410Z,4.90
2024-02-02T08:35:25.109Z,4.81
2024-02-02T08:38:02.043Z,4.86
2024-02-02T08:40:45.038Z,4.88
2024-02-02T08:43:15.794Z,4.91
2024-02-02T08:45:42.552Z,5.05
2024-02-02T08:48:24.815Z,5.21
2024-02-02T08:50:51.680Z,5.29
2024-02-02T08:53:19.339Z,5.35
2024-02-02T08:55:50.620Z,5.40
2024-02-02T08:58:33.120Z,5.35
2024-02-02T09:01:00.764Z,5.72
2024-02-02T09:03:46.181Z,5.60
2024-02-02T09:06:42.890Z,5.55
2024-02-02T09:09:13.608Z,5.61
2024-02-02T09:11:40.712Z,5.76
2024-02-02T09:14:18.572Z,5.78
2024-02-02T09:16:51.689Z,5.85
2024-02-02T09:19:25.560Z,5.98
2024-02-02T09:21:53.772Z,6.13
2024-02-02T09:24:49.222Z,6.16
2024-02-02T09:27:33.383Z,6.36
2024-02-02T09:30:01.216Z,6.39
2024-02-02T09:32:28.964Z,6.43
2024-02-02T09:35:01.012Z,6.49
2024-02-02T09:37:44.336Z,6.69
2024-02-02T09:40:45.738Z,6.86
2024-02-02T09:43:30.675Z,6.84
2024-02-02T09:46:24.008Z,6.54
2024-02-02T09:49:29.361Z,6.50
2024-02-02T09:52:01.817Z,6.46
2024-02-02T09:54:40.896Z,6.47
2024-02-02T09:57:22.572Z,6.48
2024-02-02T10:00:02.897Z,6.68
2024-02-02T10:03:00.681Z,6.92
2024-02-02T10:05:41.196Z,7.07
2024-02-02T10:08:49.965Z,7.21
2024-02-02T10:11:17.013Z,7.35
2024-02-02T10:14:13.320Z,7.57
2024-02-02T10:16:49.639Z,7.72
2024-02-02T10:19:25.611Z,7.76
2024-02-02T10:22:16.560Z,7.79
2024-02-02T10:25:01.475Z,7.65
2024-02-02T10:27:47.014Z,7.65
2024-02-02T10:30:44.353Z,8.02
2024-02-02T10:33:35.998Z,8.09
2024-02-02T10:36:23.143Z,8.43
2024-02-02T10:39:14.830Z,8.50
2024-02-02T10:42:00.546Z,8.57
2024-02-02T10:44:58.477Z,9.01
2024-02-02T10:47:43.020Z,9.20
2024-02-02T10:50:23.781Z,9.48
2024-02-02T10:53:03.246Z,10.42
2024-02-02T10:55:58.808Z,11.59
2024-02-02T10:58:43.718Z,12.31
2024-02-02T11:01:31.420Z,11.58
2024-02-02T11:04:16.317Z,11.20
2024-02-02T11:06:52.344Z,10.83
2024-02-02T11:09:48.621Z,10.64
2024-02-02T11:12:48.297Z,11.37
2024-02-02T11:15:28.647Z,11.37
2024-02-02T11:18:08.804Z,11.26
2024-02-02T11:21:11.312Z,10.98
2024-02-02T11:23:52.994Z,11.11
2024-02-02T11:26:46.110Z,10.90
2024-02-02T11:29:28.463Z,10.95
2024-02-02T11:32:10.823Z,10.72
2024-02-02T11:34:47.374Z,10.71
2024-02-02T11:37:46.177Z,10.65
2024-02-02T11:40:14.501Z,11.16
2024-02-02T11:42:41.857Z,11.65
2024-02-02T11:45:13.497Z,11.78
2024-02-02T11:47:51.400Z,11.80
2024-02-02T11:50:21.754Z,11.79
2024-02-02T11:53:09.357Z,11.38
2024-02-02T11:55:42.196Z,11.41
2024-02-02T11:58:12.778Z,11.54
2024-02-02T12:00:54.128Z,11.58
2024-02-02T12:03:42.643Z,11.72
2024-02-02T12:06:16.634Z,12.10
2024-02-02T12:09:19.020Z,12.58
2024-02-02T12:11:53.203Z,12.42
2024-02-02T12:14:27.096Z,12.12
2024-02-02T12:16:55.046Z,12.24
2024-02-02T12:19:22.497Z,11.83
2024-02-02T12:21:49.299Z,11.59
2024-02-02T12:24:18.484Z,11.51
2024-02-02T12:26:49.128Z,11.43
2024-02-02T12:29:16.901Z,11.52
2024-02-02T12:31:43.872Z,11.95
2024-02-02T12:34:10.987Z,11.61
2024-02-02T12:36:38.020Z,12.29
2024-02-02T12:39:09.288Z,12.33
2024-02-02T12:41:36.368Z,12.19
2024-02-02T12:44:03.674Z,12.21
2024-02-02T12:46:30.557Z,12.34
2024-02-02T12:48:57.452Z,12.01
2024-02-02T12:51:24.852Z,11.91
2024-02-02T12:53:51.832Z,12.15
2024-02-02T12:56:19.301Z,11.97
2024-02-02T12:58:46.051Z,11.98
2024-02-02T13:01:15.100Z,11.68
2024-02-02T13:03:44.826Z,11.69
2024-02-02T13:06:13.414Z,11.68
2024-02-02T13:08:42.474Z,11.77
2024-02-02T13:11:21.105Z,11.70
2024-02-02T13:13:48.282Z,11.75
2024-02-02T13:16:36.485Z,11.73
2024-02-02T13:19:08.799Z,11.98
2024-02-02T13:21:44.075Z,11.63
2024-02-02T13:24:20.312Z,11.84
2024-02-02T13:26:52.694Z,11.80
2024-02-02T13:29:27.035Z,11.90
2024-02-02T13:31:53.977Z,11.55
2024-02-02T13:34:21.446Z,11.83
2024-02-02T13:36:49.960Z,12.13
2024-02-02T13:39:22.834Z,11.91
2024-02-02T13:41:51.916Z,11.80
2024-02-02T13:44:24.241Z,11.98
2024-02-02T13:46:51.125Z,11.91
2024-02-02T13:49:24.702Z,11.62
2024-02-02T13:51:53.130Z,11.47
2024-02-02T13:54:21.358Z,11.73
2024-02-02T13:56:48.234Z,11.65
2024-02-02T13:59:19.368Z,11.36
2024-02-02T14:01:47.473Z,11.55
2024-02-02T14:04:15.270Z,11.42
2024-02-02T14:06:42.071Z,11.17
2024-02-02T14:09:09.923Z,11.26
2024-02-02T14:11:39.042Z,11.25
2024-02-02T14:14:06.991Z,11.26
2024-02-02T14:16:34.108Z,11.36
2024-02-02T14:19:06.229Z,11.77
2024-02-02T14:21:38.202Z,11.89
2024-02-02T14:24:13.464Z,11.72
2024-02-02T14:26:54.623Z,11.34
2024-02-02T14:29:23.527Z,11.61
2024-02-02T14:31:59.316Z,11.68
2024-02-02T14:34:28.727Z,11.77
2024-02-02T14:36:56.735Z,11.76
2024-02-02T14:39:27.821Z,11.25
2024-02-02T14:41:55.707Z,11.14
2024-02-02T14:44:23.853Z,11.02
2024-02-02T14:46:51.041Z,10.97
2024-02-02T14:49:18.966Z,11.21
2024-02-02T14:51:45.810Z,11.09
2024-02-02T14:54:12.566Z,11.41
2024-02-02T14:56:39.494Z,11.40
2024-02-02T14:59:09.628Z,11.32
2024-02-02T15:01:37.784Z,11.24
2024-02-02T15:04:06.016Z,11.09
2024-02-02T15:06:35.601Z,10.73
2024-02-02T15:09:10.782Z,11.08
2024-02-02T15:11:38.147Z,11.09
2024-02-02T15:14:05.265Z,10.95
2024-02-02T15:16:32.543Z,10.59
2024-02-02T15:18:59.599Z,10.84
2024-02-02T15:21:26.942Z,10.68
2024-02-02T15:23:53.795Z,10.54
2024-02-02T15:26:20.915Z,10.44
2024-02-02T15:28:47.677Z,10.44
2024-02-02T15:31:14.389Z,10.47
2024-02-02T15:33:42.075Z,10.18
2024-02-02T15:36:09.640Z,10.14
2024-02-02T15:38:37.398Z,10.35
2024-02-02T15:41:12.530Z,10.30
2024-02-02T15:43:39.317Z,10.18
2024-02-02T15:46:06.546Z,10.00
2024-02-02T15:48:34.003Z,10.06
2024-02-02T15:51:00.994Z,10.01
2024-02-02T15:53:29.113Z,10.11
2024-02-02T15:55:55.935Z,10.08
2024-02-02T15:58:22.724Z,9.81
2024-02-02T16:00:49.752Z,9.84
2024-02-02T16:03:17.379Z,9.69
2024-02-02T16:05:45.014Z,9.73
2024-02-02T16:08:13.272Z,9.33
2024-02-02T16:10:39.999Z,9.39
2024-02-02T16:13:06.490Z,9.30
2024-02-02T16:15:33.481Z,9.27
2024-02-02T16:18:00.659Z,9.54
2024-02-02T16:20:27.398Z,9.40
2024-02-02T16:22:53.937Z,8.96
2024-02-02T16:25:20.592Z,8.79
2024-02-02T16:27:47.542Z,9.08
2024-02-02T16:30:15.595Z,9.43
2024-02-02T16:32:42.277Z,9.31
2024-02-02T16:35:09.628Z,9.29
2024-02-02T16:37:40.838Z,9.16
2024-02-02T16:40:09.150Z,9.24
2024-02-02T16:42:37.882Z,9.30
2024-02-02T16:45:05.219Z,9.10
2024-02-02T16:47:32.122Z,9.13
2024-02-02T16:49:59.182Z,9.02
2024-02-02T16:52:26.092Z,9.01
2024-02-02T16:54:53.085Z,8.79
2024-02-02T16:57:19.826Z,8.86
2024-02-02T16:59:46.775Z,8.82
2024-02-02T17:02:13.502Z,9.00
2024-02-02T17:04:43.297Z,9.30
2024-02-02T17:07:10.466Z,9.34
2024-02-02T17:09:40.168Z,9.41
2024-02-02T17:12:10.499Z,9.32
2024-02-02T17:14:39.868Z,9.20
2024-02-02T17:17:07.292Z,9.27
2024-02-02T17:19:34.076Z,9.05
2024-02-02T17:22:00.885Z,8.97
2024-02-02T17:24:27.799Z,9.09
2024-02-02T17:26:54.961Z,9.12
2024-02-02T17:29:21.815Z,9.15
2024-02-02T17:31:48.587Z,9.13
2024-02-02T17:34:17.009Z,9.10
2024-02-02T17:36:44.125Z,9.16
2024-02-02T17:39:10.936Z,8.79
2024-02-02T17:41:37.585Z,8.97
2024-02-02T17:44:04.658Z,8.83
2024-02-02T17:46:31.319Z,8.71
2024-02-02T17:48:58.457Z,8.53
2024-02-02T17:51:25.425Z,8.52
2024-02-02T17:53:52.648Z,8.81
2024-02-02T17:56:19.147Z,8.64
2024-02-02T17:58:48.219Z,8.87
2024-02-02T18:01:16.793Z,8.88
2024-02-02T18:03:44.165Z,8.70
2024-02-02T18:06:11.192Z,8.78
2024-02-02T18:08:38.252Z,8.52
2024-02-02T18:11:07.450Z,8.35
2024-02-02T18:13:34.301Z,8.25
2024-02-02T18:16:01.037Z,7.93
2024-02-02T18:18:27.760Z,8.41
2024-02-02T18:20:54.647Z,8.47
2024-02-02T18:23:21.597Z,8.21
2024-02-02T18:25:48.209Z,8.47
2024-02-02T18:28:16.520Z,8.05
2024-02-02T18:30:43.906Z,7.94
2024-02-02T18:33:11.741Z,7.62
2024-02-02T18:35:38.652Z,7.86
2024-02-02T18:38:06.061Z,7.96
2024-02-02T18:40:32.892Z,8.12
2024-02-02T18:42:59.851Z,8.12
2024-02-02T18:45:26.969Z,8.02
2024-02-02T18:47:54.033Z,8.05
2024-02-02T18:50:20.762Z,8.34
2024-02-02T18:52:48.781Z,8.28
2024-02-02T18:55:15.769Z,8.09
2024-02-02T18:57:42.560Z,7.78
2024-02-02T19:00:10.609Z,7.86
2024-02-02T19:02:37.649Z,7.73
2024-02-02T19:05:04.992Z,7.60
2024-02-02T19:07:34.270Z,7.45
2024-02-02T19:10:01.333Z,7.61
2024-02-02T19:12:30.661Z,7.69
2024-02-02T19:14:59.812Z,7.43
2024-02-02T19:17:26.932Z,7.13
2024-02-02T19:19:53.847Z,7.28
2024-02-02T19:22:20.555Z,7.14
2024-02-02T19:24:47.694Z,7.31
2024-02-02T19:27:14.551Z,7.27
2024-02-02T19:29:41.227Z,7.42
2024-02-02T19:32:08.411Z,7.32
2024-02-02T19:34:35.703Z,7.11
2024-02-02T19:37:02.693Z,7.29
2024-02-02T19:39:29.639Z,7.29
2024-02-02T19:41:56.469Z,7.68
2024-02-02T19:44:23.321Z,7.79
2024-02-02T19:46:51.468Z,8.04
2024-02-02T19:49:18.244Z,8.09
2024-02-02T19:51:45.252Z,8.04
2024-02-02T19:54:12.277Z,7.97
2024-02-02T19:56:39.155Z,7.74
2024-02-02T19:59:05.806Z,7.52
2024-02-02T20:01:33.400Z,7.38
2024-02-02T20:04:00.382Z,7.42
2024-02-02T20:06:27.105Z,7.04
2024-02-02T20:08:53.964Z,6.79
2024-02-02T20:11:22.238Z,6.93
2024-02-02T20:13:49.861Z,7.15
2024-02-02T20:16:18.584Z,6.85
2024-02-02T20:18:45.800Z,6.63
2024-02-02T20:21:14.938Z,6.73
2024-02-02T20:23:42.349Z,7.01
2024-02-02T20:26:09.635Z,7.16
2024-02-02T20:28:36.741Z,6.73
2024-02-02T20:31:04.492Z,6.83
2024-02-02T20:33:31.450Z,6.75
2024-02-02T20:35:58.176Z,6.53
2024-02-02T20:38:24.857Z,6.53
2024-02-02T20:40:51.680Z,6.62
2024-02-02T20:43:18.409Z,7.04
2024-02-02T20:45:45.485Z,6.89
2024-02-02T20:48:12.658Z,7.21
2024-02-02T20:50:39.543Z,7.14
2024-02-02T20:53:06.292Z,7.10
2024-02-02T20:55:33.225Z,7.32
2024-02-02T20:58:02.662Z,7.37
2024-02-02T21:00:30.989Z,7.07
2024-02-02T21:02:57.866Z,7.04
2024-02-02T21:05:25.641Z,6.94
2024-02-02T21:07:53.449Z,6.77
2024-02-02T21:10:20.671Z,6.73
2024-02-02T21:12:47.844Z,6.43
2024-02-02T21:15:17.478Z,6.24
2024-02-02T21:17:48.502Z,6.40
2024-02-02T21:20:15.450Z,6.51
2024-02-02T21:22:42.273Z,6.45
2024-02-02T21:25:10.424Z,6.39
2024-02-02T21:27:37.233Z,6.33
2024-02-02T21:30:04.911Z,6.41
2024-02-02T21:32:31.863Z,6.22
2024-02-02T21:34:58.837Z,6.14
2024-02-02T21:37:25.361Z,6.43
2024-02-02T21:39:51.928Z,6.30
2024-02-02T21:42:18.601Z,6.22
2024-02-02T21:44:45.477Z,6.48
2024-02-02T21:47:12.533Z,6.64
2024-02-02T21:49:42.511Z,6.29
2024-02-02T21:52:10.861Z,6.20
2024-02-02T21:54:37.497Z,6.29
2024-02-02T21:57:04.572Z,6.26
2024-02-02T21:59:31.137Z,6.22
2024-02-02T22:01:57.970Z,6.08
2024-02-02T22:04:24.424Z,6.09
2024-02-02T22:06:53.128Z,5.91
2024-02-02T22:09:20.020Z,5.79
2024-02-02T22:11:46.801Z,5.69
2024-02-02T22:14:13.309Z,5.73
2024-02-02T22:16:39.849Z,5.64
2024-02-02T22:19:06.439Z,5.59
2024-02-02T22:21:33.618Z,5.56
2024-02-02T22:24:00.752Z,5.46
2024-02-02T22:26:27.242Z,5.37
2024-02-02T22:28:54.254Z,5.38
2024-02-02T22:31:22.215Z,5.24
2024-02-02T22:33:50.457Z,5.15
2024-02-02T22:36:22.113Z,5.06
2024-02-02T22:38:51.137Z,5.26
2024-02-02T22:41:32.980Z,5.12
2024-02-02T22:44:01.484Z,4.95
2024-02-02T22:46:31.196Z,4.81
2024-02-02T22:48:58.289Z,4.73
2024-02-02T22:51:24.992Z,4.80
2024-02-02T22:53:51.831Z,4.63
2024-02-02T22:56:18.461Z,4.67
2024-02-02T22:58:45.097Z,4.53
2024-02-02T23:01:12.472Z,4.68
2024-02-02T23:03:39.275Z,4.70
2024-02-02T23:06:06.333Z,4.94
2024-02-02T23:08:33.515Z,5.33
2024-02-02T23:11:00.254Z,5.21
2024-02-02T23:13:27.030Z,4.73
2024-02-02T23:15:55.006Z,4.44
2024-02-02T23:18:22.799Z,4.22
2024-02-02T23:20:50.035Z,4.11
2024-02-02T23:23:20.231Z,4.06
2024-02-02T23:25:46.858Z,4.03
2024-02-02T23:28:13.762Z,3.93
2024-02-02T23:30:40.519Z,3.88
2024-02-02T23:33:07.553Z,3.87
2024-02-02T23:35:34.261Z,3.85
2024-02-02T23:38:00.803Z,3.83
2024-02-02T23:40:27.699Z,3.79
2024-02-02T23:42:54.638Z,3.70
2024-02-02T23:45:21.621Z,4.14
2024-02-02T23:47:48.374Z,4.27
2024-02-02T23:50:15.539Z,4.36
2024-02-02T23:52:42.288Z,4.41
2024-02-02T23:55:10.627Z,4.46
2024-02-02T23:57:38.117Z,4.16
